CPX442 Details

Departure: Philadelphia International Airport (KPHL)
Arrival: Cincinnati/Northern Kentucky International Airport (KCVG) at N/A
Route: MXE PENSY J110 FLIRT J6 MRB J6 COLNS GAVNN4
Notes:


Current Weather Information
KPHL 251054Z 05009KT 10SM BKN080 18/14 A3022 RMK AO2 SLP234 T01830139 $
KCVG 251052Z 07010KT 10SM FEW250 16/11 A3011 RMK AO2 SLP188 T01610106